Time;durP1;ratioP1;P1;durP2;ratioP2;P2;SDS_P1;SDS_P2;PMS_P1;PMS_P2;Temp;Humidity;BMP_temperature;BMP_pressure;BME280_temperature;BME280_humidity;BME280_pressure;Samples;Min_cycle;Max_cycle;Signal;HPM_P1;HPM_P2
2024/03/22 00:03:01;;;;;;;43.63;26.80;;;;;;;10.92;100.00;102009.16;10461990;28;20025;-71
2024/03/22 00:08:02;;;;;;;41.42;25.73;;;;;;;10.78;100.00;102002.56;10463295;28;20143;-71
2024/03/22 00:13:02;;;;;;;44.70;25.90;;;;;;;10.73;100.00;101988.69;10462076;28;20053;-71
2024/03/22 00:18:03;;;;;;;45.22;26.27;;;;;;;10.66;100.00;101985.84;10480194;28;20029;-71
2024/03/22 00:23:03;;;;;;;44.03;24.23;;;;;;;10.70;100.00;101992.59;10463067;28;20029;-71
2024/03/22 00:28:04;;;;;;;48.22;23.55;;;;;;;10.60;100.00;101967.56;10462474;28;20100;-71
2024/03/22 00:33:04;;;;;;;47.67;26.98;;;;;;;10.51;100.00;101978.56;10477240;28;20112;-71
2024/03/22 00:38:04;;;;;;;59.85;29.33;;;;;;;10.61;100.00;101971.09;10461426;28;20485;-71
2024/03/22 00:43:06;;;;;;;56.58;27.50;;;;;;;10.56;100.00;101949.97;10477355;28;20100;-71
2024/03/22 00:48:06;;;;;;;52.10;27.83;;;;;;;10.38;100.00;101942.03;10476425;28;20046;-71
2024/03/22 00:53:07;;;;;;;49.08;25.88;;;;;;;10.39;100.00;101937.44;10476102;28;20033;-71
2024/03/22 00:58:08;;;;;;;48.22;25.05;;;;;;;10.25;100.00;101936.25;10459443;28;20029;-71
2024/03/22 01:03:09;;;;;;;41.08;26.98;;;;;;;10.32;100.00;101931.03;10459559;28;20048;-71
2024/03/22 01:08:10;;;;;;;60.75;26.98;;;;;;;10.35;100.00;101931.53;10461461;28;20033;-71
2024/03/22 01:13:10;;;;;;;40.95;22.17;;;;;;;10.28;100.00;101938.66;10459299;28;20505;-71
2024/03/22 01:18:10;;;;;;;27.73;17.50;;;;;;;10.17;100.00;101934.38;10460161;28;20036;-70
2024/03/22 01:23:11;;;;;;;31.38;17.90;;;;;;;10.21;100.00;101929.47;10459866;28;20052;-71
2024/03/22 01:28:11;;;;;;;27.42;16.08;;;;;;;10.21;100.00;101927.63;10460172;28;20039;-71
2024/03/22 01:33:12;;;;;;;31.65;17.35;;;;;;;10.12;100.00;101912.41;10474405;28;20035;-71
2024/03/22 01:38:12;;;;;;;22.55;18.52;;;;;;;10.17;100.00;101899.19;10457323;28;20029;-71
2024/03/22 01:43:13;;;;;;;27.83;19.17;;;;;;;10.11;100.00;101889.03;10457746;28;20475;-71
2024/03/22 01:48:13;;;;;;;31.17;19.20;;;;;;;10.16;100.00;101896.66;10474629;28;20032;-71
2024/03/22 01:53:13;;;;;;;36.08;21.42;;;;;;;10.25;100.00;101906.47;10440540;28;20055;-71
2024/03/22 01:58:14;;;;;;;30.23;21.58;;;;;;;10.23;100.00;101919.31;10457032;28;20429;-71
2024/03/22 02:03:14;;;;;;;31.08;20.95;;;;;;;10.25;100.00;101912.72;10458398;28;20033;-71
2024/03/22 02:08:15;;;;;;;23.88;17.63;;;;;;;10.23;100.00;101898.50;10472798;28;20051;-71
2024/03/22 02:13:15;;;;;;;42.00;20.90;;;;;;;10.24;100.00;101886.69;10459787;28;20072;-71
2024/03/22 02:18:15;;;;;;;35.63;19.08;;;;;;;10.25;100.00;101882.94;10459578;28;20106;-71
2024/03/22 02:23:16;;;;;;;36.67;20.60;;;;;;;10.26;100.00;101878.41;10472789;28;20033;-71
2024/03/22 02:28:16;;;;;;;30.83;18.35;;;;;;;10.20;100.00;101852.81;10456410;28;20033;-70
2024/03/22 02:33:17;;;;;;;40.67;19.35;;;;;;;10.23;100.00;101857.91;10456117;28;20039;-71
2024/03/22 02:38:17;;;;;;;40.50;18.27;;;;;;;10.25;100.00;101853.16;10472648;28;20037;-71
2024/03/22 02:43:18;;;;;;;28.67;18.08;;;;;;;10.19;100.00;101855.72;10472683;28;20102;-71
2024/03/22 02:48:19;;;;;;;42.92;20.63;;;;;;;10.17;100.00;101836.09;10471994;28;20033;-71
2024/03/22 02:53:19;;;;;;;32.33;18.20;;;;;;;10.02;100.00;101823.28;10454249;28;20079;-70
2024/03/22 02:58:20;;;;;;;37.10;18.45;;;;;;;9.95;100.00;101797.03;10454103;28;20380;-70
2024/03/22 03:03:20;;;;;;;36.15;20.13;;;;;;;9.91;100.00;101796.56;10437566;28;20045;-71
2024/03/22 03:08:21;;;;;;;28.98;19.02;;;;;;;9.95;100.00;101797.88;10456178;28;20151;-70
2024/03/22 03:13:21;;;;;;;28.55;18.58;;;;;;;9.95;100.00;101789.78;10456223;28;20049;-71
2024/03/22 03:18:21;;;;;;;41.70;21.50;;;;;;;9.95;100.00;101778.94;10455356;28;20202;-71
2024/03/22 03:23:22;;;;;;;36.50;18.15;;;;;;;9.99;100.00;101779.47;10470398;28;20353;-70
2024/03/22 03:28:22;;;;;;;24.67;16.75;;;;;;;9.95;100.00;101765.41;10470688;28;20408;-71
2024/03/22 03:33:23;;;;;;;22.17;14.07;;;;;;;9.94;100.00;101758.31;10455329;28;20314;-71
2024/03/22 03:38:23;;;;;;;34.20;17.50;;;;;;;9.93;100.00;101745.00;10437486;28;20123;-71
2024/03/22 03:43:24;;;;;;;27.73;16.13;;;;;;;9.95;100.00;101732.13;10454985;28;20037;-71
2024/03/22 03:48:24;;;;;;;33.45;15.60;;;;;;;9.85;100.00;101735.00;10453935;28;20108;-71
2024/03/22 03:53:25;;;;;;;27.73;16.35;;;;;;;9.83;100.00;101733.50;10454354;28;20029;-71
2024/03/22 03:58:25;;;;;;;20.75;13.00;;;;;;;9.93;100.00;101732.31;10454936;28;20029;-70
2024/03/22 04:03:26;;;;;;;21.33;12.48;;;;;;;9.90;100.00;101743.47;10455566;28;20040;-71
2024/03/22 04:08:26;;;;;;;25.80;14.43;;;;;;;9.93;100.00;101734.16;10452743;28;20028;-70
2024/03/22 04:13:27;;;;;;;37.53;17.30;;;;;;;9.87;100.00;101743.81;10454754;28;20055;-70
2024/03/22 04:18:27;;;;;;;25.20;14.23;;;;;;;9.89;100.00;101746.31;10453980;28;20029;-71
2024/03/22 04:23:27;;;;;;;24.02;15.15;;;;;;;9.77;100.00;101748.56;10453340;28;20362;-71
2024/03/22 04:28:28;;;;;;;15.27;11.18;;;;;;;9.78;100.00;101747.53;10452573;28;20033;-70
2024/03/22 04:33:29;;;;;;;42.30;15.45;;;;;;;9.82;100.00;101745.34;10438081;28;20051;-71
2024/03/22 04:38:29;;;;;;;21.00;15.13;;;;;;;9.77;100.00;101746.69;10471347;28;20037;-71
2024/03/22 04:43:29;;;;;;;30.67;16.05;;;;;;;9.77;100.00;101751.28;10462446;28;20153;-70
2024/03/22 04:48:30;;;;;;;33.22;15.55;;;;;;;9.77;100.00;101759.38;10462109;28;20032;-70
2024/03/22 04:53:30;;;;;;;32.53;16.45;;;;;;;9.71;100.00;101735.72;10461197;28;20037;-71
2024/03/22 04:58:31;;;;;;;27.95;14.65;;;;;;;9.74;100.00;101748.91;10460335;28;20056;-71
2024/03/22 05:03:31;;;;;;;23.77;13.82;;;;;;;9.74;100.00;101748.91;10461670;28;20060;-70
2024/03/22 05:08:32;;;;;;;29.33;14.70;;;;;;;9.72;100.00;101748.22;10460377;28;20119;-70
2024/03/22 05:13:33;;;;;;;23.75;14.02;;;;;;;9.75;100.00;101728.94;10461034;28;20045;-71
2024/03/22 05:18:33;;;;;;;20.10;13.15;;;;;;;9.72;100.00;101726.59;10458258;28;20112;-71
2024/03/22 05:23:33;;;;;;;21.42;13.20;;;;;;;9.72;100.00;101727.44;10475021;28;20040;-70
2024/03/22 05:28:34;;;;;;;28.48;12.68;;;;;;;9.69;100.00;101708.00;10460524;28;20052;-71
2024/03/22 05:33:34;;;;;;;30.05;15.10;;;;;;;9.61;100.00;101708.03;10457975;28;20036;-70
2024/03/22 05:38:35;;;;;;;39.08;16.40;;;;;;;9.64;100.00;101704.97;10459817;28;20052;-70
2024/03/22 05:43:35;;;;;;;25.85;13.77;;;;;;;9.64;100.00;101702.28;10459476;28;20410;-70
2024/03/22 05:48:35;;;;;;;30.73;17.30;;;;;;;9.51;100.00;101687.41;10459205;28;20120;-70
2024/03/22 05:53:36;;;;;;;36.45;16.58;;;;;;;9.51;100.00;101697.41;10441153;28;20091;-69
2024/03/22 05:58:36;;;;;;;43.85;19.13;;;;;;;9.55;100.00;101701.44;10458480;28;20037;-70
2024/03/22 06:03:37;;;;;;;43.25;18.15;;;;;;;9.53;100.00;101684.53;10457591;28;20033;-70
2024/03/22 06:08:39;;;;;;;28.13;15.63;;;;;;;9.65;100.00;101669.63;10458419;28;20052;-71
2024/03/22 06:13:39;;;;;;;20.85;15.10;;;;;;;9.83;100.00;101684.78;10456157;28;20055;-70
2024/03/22 06:18:40;;;;;;;31.23;16.52;;;;;;;9.95;100.00;101686.13;10456772;28;20081;-70
2024/03/22 06:23:41;;;;;;;27.85;13.88;;;;;;;10.19;100.00;101691.44;10458045;28;20085;-70
2024/03/22 06:28:43;;;;;;;33.60;17.20;;;;;;;10.23;100.00;101687.38;10457082;28;20120;-70
2024/03/22 06:33:43;;;;;;;16.30;11.15;;;;;;;10.30;100.00;101694.81;10471263;28;20122;-70
2024/03/22 06:38:43;;;;;;;29.55;13.15;;;;;;;10.33;100.00;101684.47;10455721;28;20133;-70
2024/03/22 06:43:44;;;;;;;20.73;10.85;;;;;;;10.43;100.00;101695.94;10457025;28;20433;-70
2024/03/22 06:48:45;;;;;;;21.60;11.07;;;;;;;10.46;100.00;101690.19;10454687;28;20174;-70
2024/03/22 06:53:47;;;;;;;22.17;10.73;;;;;;;10.51;100.00;101688.78;10454599;28;20449;-70
2024/03/22 06:58:48;;;;;;;22.50;10.25;;;;;;;10.60;100.00;101690.44;10456389;28;20422;-71
2024/03/22 07:03:48;;;;;;;16.67;9.40;;;;;;;10.58;100.00;101695.19;10453450;28;20120;-70
2024/03/22 07:08:48;;;;;;;30.45;8.27;;;;;;;10.59;100.00;101696.84;10456187;28;20057;-70
2024/03/22 07:13:49;;;;;;;22.75;8.52;;;;;;;10.54;100.00;101696.56;10456440;28;20044;-71
2024/03/22 07:18:50;;;;;;;23.02;8.95;;;;;;;10.38;100.00;101692.91;10455324;28;20427;-70
2024/03/22 07:23:50;;;;;;;20.73;9.25;;;;;;;10.33;100.00;101689.88;10454352;28;20407;-70
2024/03/22 07:28:51;;;;;;;17.73;7.95;;;;;;;10.36;100.00;101689.53;10454888;28;20078;-71
2024/03/22 07:33:53;;;;;;;12.70;8.43;;;;;;;10.40;100.00;101684.59;10453174;28;20035;-70
2024/03/22 07:38:53;;;;;;;20.35;9.63;;;;;;;10.33;100.00;101687.19;10454300;28;20460;-70
2024/03/22 07:43:54;;;;;;;27.05;9.40;;;;;;;10.38;100.00;101679.38;10453495;28;20033;-70
2024/03/22 07:48:54;;;;;;;27.02;8.52;;;;;;;10.35;100.00;101678.91;10454710;28;20033;-70
2024/03/22 07:53:54;;;;;;;19.20;9.45;;;;;;;10.38;100.00;101671.25;10454297;28;20445;-70
2024/03/22 07:58:55;;;;;;;25.25;9.98;;;;;;;10.20;100.00;101686.88;10436162;28;20033;-70
2024/03/22 08:03:56;;;;;;;17.42;8.52;;;;;;;10.15;100.00;101683.88;10455311;28;20060;-70
2024/03/22 08:08:56;;;;;;;15.13;8.50;;;;;;;10.09;100.00;101676.44;10436378;28;20432;-70
2024/03/22 08:14:02;;;;;;;14.88;8.75;;;;;;;10.20;100.00;101685.00;10456916;28;20029;-70
2024/03/22 08:19:02;;;;;;;19.52;8.88;;;;;;;10.20;100.00;101684.16;10464078;28;20041;-70
2024/03/22 08:24:03;;;;;;;23.52;10.27;;;;;;;10.36;100.00;101691.41;10461208;28;20029;-70
2024/03/22 08:29:03;;;;;;;15.93;8.30;;;;;;;10.39;100.00;101685.63;10461234;28;20036;-70
2024/03/22 08:34:05;;;;;;;24.02;8.75;;;;;;;10.39;100.00;101680.22;10460854;28;20120;-70
2024/03/22 08:39:07;;;;;;;21.25;8.98;;;;;;;10.17;100.00;101676.41;10461117;28;20029;-70
2024/03/22 08:44:07;;;;;;;24.95;11.38;;;;;;;10.19;100.00;101683.31;10460956;28;20028;-70
2024/03/22 08:49:08;;;;;;;16.10;9.70;;;;;;;10.17;100.00;101679.09;10460540;28;20123;-70
2024/03/22 08:54:08;;;;;;;33.75;9.07;;;;;;;10.13;100.00;101675.06;10460682;28;20090;-70
2024/03/22 08:59:10;;;;;;;19.42;10.93;;;;;;;10.23;100.00;101663.00;10460157;28;20041;-70
2024/03/22 09:04:10;;;;;;;26.58;11.45;;;;;;;10.35;100.00;101666.19;10475707;28;20032;-70
2024/03/22 09:09:11;;;;;;;22.67;11.10;;;;;;;10.44;100.00;101658.88;10475599;28;20033;-70
2024/03/22 09:14:11;;;;;;;33.38;10.25;;;;;;;10.37;100.00;101664.16;10459585;28;20163;-70
2024/03/22 09:19:12;;;;;;;19.77;9.18;;;;;;;10.29;100.00;101671.47;10442700;28;20583;-70
2024/03/22 09:24:12;;;;;;;18.98;10.57;;;;;;;10.35;100.00;101670.78;10459113;28;20035;-70
2024/03/22 09:29:16;;;;;;;26.25;9.25;;;;;;;10.29;100.00;101655.22;10460291;28;20115;-70
2024/03/22 09:34:16;;;;;;;26.90;10.18;;;;;;;10.34;100.00;101664.53;10459571;28;20118;-70
2024/03/22 09:39:17;;;;;;;15.63;9.45;;;;;;;10.39;100.00;101661.25;10459507;28;20123;-70
2024/03/22 09:44:18;;;;;;;14.75;9.63;;;;;;;10.44;100.00;101654.31;10457557;28;20120;-70
2024/03/22 09:49:19;;;;;;;26.52;10.27;;;;;;;10.34;100.00;101650.97;10441330;28;20025;-70
2024/03/22 09:54:19;;;;;;;20.63;10.10;;;;;;;10.29;100.00;101655.22;10457907;28;20028;-70
2024/03/22 09:59:20;;;;;;;15.90;9.68;;;;;;;10.41;100.00;101646.53;10457202;28;20369;-70
2024/03/22 10:04:20;;;;;;;14.38;8.38;;;;;;;10.41;100.00;101641.13;10458633;28;20032;-70
2024/03/22 10:09:30;;;;;;;0.57;0.57;;;;;;;10.59;100.00;101638.16;10439123;28;20045;-70
2024/03/22 10:14:33;;;;;;;0.52;0.52;;;;;;;10.67;100.00;101645.34;10457239;28;20353;-70
2024/03/22 10:19:33;;;;;;;0.70;0.70;;;;;;;10.67;100.00;101642.66;10457127;28;20032;-70
2024/03/22 10:24:34;;;;;;;0.68;0.68;;;;;;;10.62;100.00;101655.88;10456303;28;20021;-71
2024/03/22 10:29:35;;;;;;;0.52;0.52;;;;;;;10.56;100.00;101662.00;10456845;28;20483;-71
2024/03/22 10:34:36;;;;;;;1.83;1.77;;;;;;;10.45;100.00;101655.97;10456726;28;20066;-71
2024/03/22 10:39:36;;;;;;;1.88;1.85;;;;;;;10.55;100.00;101646.78;10455766;28;20116;-70
2024/03/22 10:44:36;;;;;;;3.58;2.42;;;;;;;10.48;100.00;101655.63;10454937;28;20036;-69
2024/03/22 10:49:37;;;;;;;1.35;1.35;;;;;;;10.47;100.00;101672.06;10438130;28;20021;-69
2024/03/22 10:54:39;;;;;;;0.57;0.57;;;;;;;10.52;100.00;101655.28;10455095;28;20052;-69
2024/03/22 10:59:41;;;;;;;0.93;0.93;;;;;;;10.75;100.00;101656.13;10454585;28;20028;-69
2024/03/22 11:04:41;;;;;;;0.70;0.70;;;;;;;11.05;100.00;101634.56;10454989;28;20115;-70
2024/03/22 11:09:42;;;;;;;0.40;0.40;;;;;;;11.46;100.00;101643.16;10455024;28;20057;-69
2024/03/22 11:14:42;;;;;;;1.95;1.88;;;;;;;11.85;100.00;101637.50;10438123;28;20025;-69
2024/03/22 11:19:43;;;;;;;1.15;1.15;;;;;;;12.17;100.00;101640.00;10421310;28;20037;-70
2024/03/22 11:24:43;;;;;;;0.85;0.85;;;;;;;12.19;100.00;101624.34;10470919;28;20129;-70
2024/03/22 11:29:51;;;;;;;1.13;1.08;;;;;;;11.99;100.00;101624.94;10454757;28;20472;-69
2024/03/22 11:34:51;;;;;;;7.97;4.10;;;;;;;11.97;100.00;101618.03;10453479;28;20449;-69
2024/03/22 11:39:51;;;;;;;0.50;0.50;;;;;;;11.93;100.00;101616.72;10438122;28;20055;-70
2024/03/22 11:44:52;;;;;;;0.68;0.68;;;;;;;12.06;100.00;101620.44;10454154;28;20029;-71
2024/03/22 11:49:52;;;;;;;2.30;2.20;;;;;;;12.03;100.00;101623.53;10453184;28;20037;-69
2024/03/22 11:54:53;;;;;;;0.93;0.93;;;;;;;12.03;100.00;101623.53;10420040;28;20464;-70
2024/03/22 11:59:58;;;;;;;0.40;0.40;;;;;;;11.85;100.00;101629.34;10455130;28;20376;-70
2024/03/22 12:04:59;;;;;;;0.40;0.40;;;;;;;11.59;100.00;101621.66;10454383;28;20021;-70
2024/03/22 12:09:59;;;;;;;0.80;0.80;;;;;;;11.46;100.00;101613.34;10419575;28;20381;-70
2024/03/22 12:15:00;;;;;;;0.82;0.82;;;;;;;11.28;100.00;101610.13;10452534;28;20025;-69
2024/03/22 12:20:00;;;;;;;2.05;1.95;;;;;;;11.12;100.00;101595.69;10455250;28;20029;-69
2024/03/22 12:25:01;;;;;;;1.10;1.10;;;;;;;11.00;100.00;101588.19;10455191;28;20033;-68
2024/03/22 12:30:01;;;;;;;0.30;0.30;;;;;;;11.12;100.00;101582.13;10436486;28;20029;-69
2024/03/22 12:35:02;;;;;;;0.47;0.47;;;;;;;11.07;100.00;101581.00;10436167;28;20450;-69
2024/03/22 12:40:02;;;;;;;1.63;1.63;;;;;;;10.95;100.00;101575.22;10452836;28;20033;-68
2024/03/22 12:45:04;;;;;;;0.82;0.82;;;;;;;10.99;100.00;101576.50;10453326;28;20036;-70
2024/03/22 12:50:05;;;;;;;4.18;1.90;;;;;;;11.12;100.00;101573.16;10453855;28;20501;-68
2024/03/22 12:55:06;;;;;;;2.03;1.95;;;;;;;11.32;100.00;101566.16;10436649;28;20051;-69
2024/03/22 13:00:12;;;;;;;4.90;1.35;;;;;;;11.35;100.00;101568.50;10456227;28;20029;-70
2024/03/22 13:05:13;;;;;;;0.70;0.70;;;;;;;11.34;100.00;101561.41;10462518;28;20025;-70
2024/03/22 13:10:13;;;;;;;2.35;1.55;;;;;;;11.44;100.00;101552.16;10461754;28;20144;-70
2024/03/22 13:15:14;;;;;;;2.13;2.05;;;;;;;11.33;100.00;101543.47;10441955;28;20059;-69
2024/03/22 13:20:15;;;;;;;1.52;1.52;;;;;;;11.34;100.00;101549.72;10459758;28;20124;-69
2024/03/22 13:25:15;;;;;;;7.07;2.97;;;;;;;11.41;100.00;101546.06;10458070;28;20108;-68
2024/03/22 13:30:16;;;;;;;0.45;0.45;;;;;;;11.42;100.00;101533.34;10458396;28;20086;-69
2024/03/22 13:35:16;;;;;;;2.95;1.67;;;;;;;11.54;100.00;101531.00;10458238;28;20095;-68
2024/03/22 13:40:17;;;;;;;1.13;1.13;;;;;;;11.48;100.00;101515.50;10459234;28;20032;-69
2024/03/22 13:45:17;;;;;;;0.93;0.93;;;;;;;11.61;100.00;101515.66;10456717;28;20080;-69
2024/03/22 13:50:18;;;;;;;0.65;0.65;;;;;;;11.54;100.00;101512.03;10458850;28;20056;-71
2024/03/22 13:55:18;;;;;;;0.80;0.80;;;;;;;11.47;100.00;101501.09;10458345;28;20051;-68
2024/03/22 14:00:19;;;;;;;0.85;0.85;;;;;;;11.63;100.00;101500.03;10458947;28;20028;-69
2024/03/22 14:05:19;;;;;;;0.50;0.50;;;;;;;11.60;100.00;101489.56;10458438;28;20025;-69
2024/03/22 14:10:20;;;;;;;10.70;2.13;;;;;;;11.51;100.00;101493.41;10457577;28;20048;-69
2024/03/22 14:15:21;;;;;;;1.27;1.17;;;;;;;11.46;100.00;101482.31;10456713;28;20025;-69
2024/03/22 14:20:21;;;;;;;0.43;0.43;;;;;;;11.51;100.00;101485.28;10457569;28;20486;-70
2024/03/22 14:25:22;;;;;;;3.63;1.75;;;;;;;11.57;100.00;101482.66;10456520;28;20075;-69
2024/03/22 14:30:22;;;;;;;0.60;0.60;;;;;;;11.56;100.00;101477.44;10457757;28;20056;-69
2024/03/22 14:35:23;;;;;;;0.40;0.40;;;;;;;11.54;100.00;101472.19;10455989;28;20025;-69
2024/03/22 14:40:23;;;;;;;0.40;0.40;;;;;;;11.35;100.00;101470.88;10456162;28;20029;-70
2024/03/22 14:45:24;;;;;;;1.80;1.70;;;;;;;11.29;100.00;101479.78;10455955;28;20064;-69
2024/03/22 14:50:24;;;;;;;1.02;1.02;;;;;;;11.09;100.00;101463.25;10455524;28;20029;-69
2024/03/22 14:55:25;;;;;;;0.50;0.50;;;;;;;10.91;100.00;101476.31;10455630;28;20486;-68
2024/03/22 15:00:26;;;;;;;3.00;2.80;;;;;;;10.68;100.00;101468.25;10456070;28;20273;-68
2024/03/22 15:05:26;;;;;;;0.40;0.40;;;;;;;10.59;100.00;101466.66;10471862;28;20120;-67
2024/03/22 15:10:27;;;;;;;0.50;0.50;;;;;;;10.25;100.00;101468.78;10456543;28;20140;-68
2024/03/22 15:15:27;;;;;;;0.60;0.60;;;;;;;9.91;100.00;101469.19;10455112;28;20381;-67
2024/03/22 15:20:28;;;;;;;0.50;0.50;;;;;;;9.75;100.00;101458.47;10437365;28;20365;-67
2024/03/22 15:25:28;;;;;;;0.50;0.50;;;;;;;9.69;100.00;101453.78;10454097;28;20056;-68
2024/03/22 15:30:29;;;;;;;0.50;0.50;;;;;;;9.67;100.00;101435.03;10455222;28;20044;-69
2024/03/22 15:35:30;;;;;;;0.32;0.32;;;;;;;9.63;100.00;101433.69;10455911;28;20075;-68
2024/03/22 15:40:34;;;;;;;0.70;0.70;;;;;;;9.70;100.00;101442.81;10455179;28;20534;-69
2024/03/22 15:45:36;;;;;;;0.40;0.40;;;;;;;9.67;100.00;101437.75;10438768;28;20156;-68
2024/03/22 15:50:37;;;;;;;0.38;0.38;;;;;;;9.62;100.00;101434.72;10456264;28;20124;-69
2024/03/22 15:55:37;;;;;;;0.40;0.40;;;;;;;9.75;100.00;101421.44;10455632;28;20086;-69
2024/03/22 16:00:37;;;;;;;3.08;2.83;;;;;;;9.83;100.00;101420.56;10453951;28;20041;-70
2024/03/22 16:05:48;;;;;;;0.50;0.50;;;;;;;9.89;100.00;101400.91;10453433;28;20036;-70
2024/03/22 16:10:48;;;;;;;0.60;0.60;;;;;;;9.91;100.00;101415.09;10439548;28;20052;-70
2024/03/22 16:15:49;;;;;;;0.40;0.40;;;;;;;9.94;100.00;101398.50;10452715;28;20152;-70
2024/03/22 16:20:49;;;;;;;0.90;0.90;;;;;;;9.87;100.00;101408.38;10454254;28;20033;-70
2024/03/22 16:25:49;;;;;;;1.25;1.25;;;;;;;9.88;100.00;101396.50;10454931;28;20114;-70
2024/03/22 16:30:50;;;;;;;0.47;0.47;;;;;;;9.83;100.00;101423.28;10453924;28;20029;-70
2024/03/22 16:35:51;;;;;;;0.50;0.50;;;;;;;9.78;100.00;101407.56;10456457;28;20029;-70
2024/03/22 16:40:51;;;;;;;0.50;0.50;;;;;;;9.81;100.00;101403.66;10461759;28;20104;-71
2024/03/22 16:45:51;;;;;;;0.50;0.50;;;;;;;9.77;100.00;101403.19;10460212;28;20033;-70
2024/03/22 16:50:52;;;;;;;0.30;0.30;;;;;;;9.69;100.00;101405.94;10461043;28;20041;-71
2024/03/22 16:55:52;;;;;;;1.45;1.45;;;;;;;9.61;100.00;101394.34;10461253;28;20033;-70
2024/03/22 17:00:53;;;;;;;0.30;0.30;;;;;;;9.60;100.00;101406.16;10461876;28;20468;-71
2024/03/22 17:05:54;;;;;;;0.50;0.50;;;;;;;9.55;100.00;101388.63;10459787;28;20360;-70
2024/03/22 17:10:55;;;;;;;0.98;0.98;;;;;;;9.54;100.00;101386.97;10459910;28;20111;-71
2024/03/22 17:15:57;;;;;;;2.35;2.25;;;;;;;9.52;100.00;101385.44;10460551;28;20056;-71
2024/03/22 17:20:57;;;;;;;0.63;0.63;;;;;;;9.50;100.00;101363.97;10462063;28;20040;-71
2024/03/22 17:26:01;;;;;;;2.03;1.92;;;;;;;9.49;100.00;101373.13;10461650;28;20028;-70
2024/03/22 17:31:01;;;;;;;0.50;0.50;;;;;;;9.46;100.00;101364.53;10442658;28;20364;-71
2024/03/22 17:36:02;;;;;;;0.50;0.50;;;;;;;9.44;100.00;101356.59;10458846;28;20060;-71
2024/03/22 17:41:03;;;;;;;13.45;2.92;;;;;;;9.42;100.00;101366.75;10458849;28;20033;-71
2024/03/22 17:46:05;;;;;;;0.47;0.47;;;;;;;9.38;100.00;101357.34;10441563;28;20131;-71
2024/03/22 17:51:05;;;;;;;0.57;0.57;;;;;;;9.34;100.00;101355.97;10457502;28;20032;-70
2024/03/22 17:56:07;;;;;;;0.50;0.50;;;;;;;9.31;100.00;101361.75;10459947;28;20033;-71
2024/03/22 18:01:07;;;;;;;10.55;3.42;;;;;;;9.25;100.00;101368.72;10459186;28;20039;-71
2024/03/22 18:06:08;;;;;;;0.50;0.50;;;;;;;9.23;100.00;101373.44;10458142;28;20056;-71
2024/03/22 18:11:08;;;;;;;3.05;2.75;;;;;;;9.19;100.00;101365.84;10441148;28;20060;-72
2024/03/22 18:16:08;;;;;;;1.85;1.70;;;;;;;9.18;100.00;101361.47;10439820;28;20120;-71
2024/03/22 18:21:09;;;;;;;1.02;0.93;;;;;;;9.15;100.00;101361.84;10457615;28;20116;-71
2024/03/22 18:26:09;;;;;;;0.40;0.40;;;;;;;9.16;100.00;101360.84;10457759;28;20037;-70
2024/03/22 18:31:11;;;;;;;0.60;0.60;;;;;;;9.16;100.00;101360.84;10456827;28;20032;-71
2024/03/22 18:36:11;;;;;;;0.70;0.70;;;;;;;9.13;100.00;101355.78;10457066;28;20069;-72
2024/03/22 18:41:11;;;;;;;2.30;2.20;;;;;;;9.12;100.00;101359.47;10457295;28;20350;-71
2024/03/22 18:46:12;;;;;;;8.88;4.15;;;;;;;9.08;100.00;101340.94;10457163;28;20029;-71
2024/03/22 18:51:13;;;;;;;0.35;0.35;;;;;;;9.04;100.00;101336.06;10456855;28;20040;-72
2024/03/22 18:56:14;;;;;;;1.77;1.67;;;;;;;8.99;100.00;101344.69;10457606;28;20032;-71
2024/03/22 19:01:14;;;;;;;1.58;1.58;;;;;;;8.96;100.00;101344.19;10455027;28;20036;-72
2024/03/22 19:06:15;;;;;;;0.93;0.93;;;;;;;8.93;100.00;101323.78;10454960;28;20036;-72
2024/03/22 19:11:15;;;;;;;0.40;0.40;;;;;;;8.91;100.00;101325.84;10455156;28;20049;-71
2024/03/22 19:16:15;;;;;;;0.40;0.40;;;;;;;8.91;100.00;101319.59;10455946;28;20060;-71
2024/03/22 19:21:16;;;;;;;1.10;1.10;;;;;;;8.85;100.00;101300.38;10457390;28;20029;-71
2024/03/22 19:26:16;;;;;;;1.75;1.67;;;;;;;8.84;100.00;101300.56;10455396;28;20448;-72
2024/03/22 19:31:17;;;;;;;3.05;2.85;;;;;;;8.80;100.00;101304.59;10456368;28;20124;-71
2024/03/22 19:36:18;;;;;;;1.40;1.40;;;;;;;8.76;100.00;101293.31;10455038;28;20029;-72
2024/03/22 19:41:18;;;;;;;0.38;0.38;;;;;;;8.73;100.00;101296.38;10422545;28;20064;-71
2024/03/22 19:46:19;;;;;;;1.67;1.58;;;;;;;8.73;100.00;101287.44;10455211;28;20112;-73
2024/03/22 19:51:20;;;;;;;0.60;0.60;;;;;;;8.74;100.00;101289.09;10454336;28;20120;-73
2024/03/22 19:56:20;;;;;;;1.65;1.60;;;;;;;8.74;100.00;101283.69;10453538;28;20362;-73
2024/03/22 20:01:20;;;;;;;1.35;1.35;;;;;;;8.69;100.00;101278.84;10437003;28;20052;-72
2024/03/22 20:06:21;;;;;;;1.10;1.10;;;;;;;8.70;100.00;101275.13;10453156;28;20064;-72
2024/03/22 20:11:21;;;;;;;1.52;1.52;;;;;;;8.64;100.00;101269.59;10460842;28;20468;-73
2024/03/22 20:16:22;;;;;;;4.68;1.75;;;;;;;8.64;100.00;101270.41;10462116;28;20065;-73
2024/03/22 20:21:22;;;;;;;1.52;1.52;;;;;;;8.59;100.00;101262.84;10462817;28;20068;-73
2024/03/22 20:26:23;;;;;;;1.50;1.42;;;;;;;8.55;100.00;101269.63;10461860;28;20033;-73
2024/03/22 20:31:26;;;;;;;1.33;1.30;;;;;;;8.54;100.00;101269.78;10462654;28;20091;-72
2024/03/22 20:36:26;;;;;;;2.15;1.95;;;;;;;8.53;100.00;101265.41;10463199;28;20414;-73
2024/03/22 20:41:28;;;;;;;0.43;0.43;;;;;;;8.52;100.00;101261.03;10461316;28;20033;-71
2024/03/22 20:46:31;;;;;;;1.48;1.48;;;;;;;8.50;100.00;101252.28;10461457;28;20098;-71
2024/03/22 20:51:33;;;;;;;1.42;1.42;;;;;;;8.47;100.00;101244.53;10461650;28;20098;-74
2024/03/22 20:56:34;;;;;;;0.73;0.73;;;;;;;8.42;100.00;101247.72;10461316;28;20024;-72
2024/03/22 21:01:36;;;;;;;1.15;1.15;;;;;;;8.40;100.00;101246.25;10461207;28;20056;-73
2024/03/22 21:06:37;;;;;;;0.60;0.60;;;;;;;8.38;100.00;101224.81;10460240;28;20095;-73
2024/03/22 21:11:38;;;;;;;0.47;0.47;;;;;;;8.37;100.00;101233.91;10459810;28;20044;-73
2024/03/22 21:16:40;;;;;;;0.63;0.63;;;;;;;8.31;100.00;101230.03;10457656;28;20055;-73
2024/03/22 21:21:41;;;;;;;1.50;1.50;;;;;;;8.21;100.00;101226.72;10458607;28;20077;-73
2024/03/22 21:26:43;;;;;;;0.50;0.50;;;;;;;8.16;100.00;101219.13;10457680;28;20536;-73
2024/03/22 21:31:44;;;;;;;0.57;0.57;;;;;;;8.10;100.00;101216.28;10457856;28;20082;-73
2024/03/22 21:36:46;;;;;;;0.50;0.50;;;;;;;8.07;100.00;101219.34;10456447;28;20083;-73
2024/03/22 21:41:48;;;;;;;2.22;2.13;;;;;;;8.06;100.00;101198.78;10458430;28;20033;-73
2024/03/22 21:46:49;;;;;;;1.52;1.42;;;;;;;8.03;100.00;101191.88;10457605;28;20407;-72
2024/03/22 21:51:51;;;;;;;0.80;0.80;;;;;;;7.99;100.00;101195.94;10457226;28;20037;-71
2024/03/22 21:56:52;;;;;;;1.25;1.25;;;;;;;7.98;100.00;101191.56;10456687;28;20071;-71
2024/03/22 22:01:54;;;;;;;8.75;4.22;;;;;;;7.96;100.00;101187.34;10456860;28;20021;-70
2024/03/22 22:06:55;;;;;;;30.17;4.43;;;;;;;7.93;100.00;101193.94;10456486;28;20112;-72
2024/03/22 22:11:57;;;;;;;0.50;0.50;;;;;;;7.91;100.00;101179.75;10419086;28;1116002;-71
2024/03/22 22:17:00;;;;;;;1.95;1.85;;;;;;;7.88;100.00;101172.88;10457343;28;20028;-71
2024/03/22 22:22:01;;;;;;;2.47;2.38;;;;;;;7.87;100.00;101170.34;10458437;28;20036;-73
2024/03/22 22:27:03;;;;;;;0.70;0.70;;;;;;;7.84;100.00;101170.69;10457167;28;20033;-70
2024/03/22 22:32:05;;;;;;;0.68;0.68;;;;;;;7.79;100.00;101151.53;10457782;28;20109;-72
2024/03/22 22:37:06;;;;;;;2.50;1.77;;;;;;;7.82;100.00;101129.59;10457518;28;20029;-70
2024/03/22 22:42:08;;;;;;;1.00;1.00;;;;;;;7.89;100.00;101154.84;10456460;28;20033;-71